NCAR-RAP Real-Time Weather Data

Output produced by METARs form (17 September 2019  17:16 UTC)
found at http://weather.rap.ucar.edu/surface/
 
KDDC 171702Z AUTO 18021G34KT 6SM HZ FEW001 32/15 A2997 RMK AO2 PK WND 17034/1659 T03170150
KDDC 171652Z AUTO 20020G37KT 2 1/2SM HZ FEW001 31/15 A2998 RMK AO2 PK WND 19037/1644 VIS 1/2V5 SLP115 T03110150
KDDC 171638Z AUTO 19018G36KT 3SM HZ FEW001 31/16 A2998 RMK AO2 PK WND 17036/1630 T03110156
KDDC 171552Z AUTO 18023G31KT 6SM HZ CLR 29/16 A2999 RMK AO2 PK WND 17032/1508 SLP118 T02940161
KDDC 171452Z AUTO 18019G28KT 4SM HZ CLR 27/16 A2999 RMK AO2 PK WND 19028/1409 SLP121 T02670161 50002
KDDC 171352Z AUTO 18018G25KT 7SM CLR 24/17 A3000 RMK AO2 PK WND 17026/1338 SLP124 T02390167
KDDC 171252Z AUTO 17015KT 7SM CLR 22/17 A3000 RMK AO2 SLP126 T02220167
KDDC 171152Z AUTO 17015KT 8SM CLR 22/17 A2999 RMK AO2 SLP119 T02170167 10244 20217 53000
KDDC 171052Z AUTO 17015KT 8SM CLR 22/17 A2998 RMK AO2 SLP117 T02220172
KDDC 170952Z AUTO 17013KT 8SM CLR 22/17 A2998 RMK AO2 SLP117 T02220172
KDDC 170852Z AUTO 17015KT 8SM CLR 23/18 A2998 RMK AO2 SLP117 T02280178 58003
KDDC 170752Z AUTO 17017KT 9SM CLR 23/18 A2999 RMK AO2 SLP120 T02280178
KDDC 170652Z AUTO 17014KT 9SM CLR 24/17 A3000 RMK AO2 SLP120 T02390172
KDDC 170552Z AUTO 17017KT 9SM CLR 24/17 A3000 RMK AO2 PK WND 17026/0536 SLP120 T02440172 10322 20244 403500211 50004
KDDC 170452Z AUTO 16015KT 9SM CLR 24/17 A3000 RMK AO2 SLP123 T02440167
KDDC 170352Z AUTO 16016G25KT 10SM CLR 26/16 A2999 RMK AO2 PK WND 17026/0314 SLP120 T02560156
KDDC 170252Z AUTO 17018KT 10SM CLR 27/14 A2998 RMK AO2 SLP118 T02670144 53008
KDDC 170052Z AUTO 16014KT 8SM CLR 29/13 A2996 RMK AO2 PK WND 17031/0018 SLP113 T02890133
KDDC 162352Z AUTO 17019G26KT 9SM CLR 32/12 A2996 RMK AO2 PK WND 17033/2303 SLP108 60000 T03220122 10350 20322 55008
KDDC 162252Z AUTO 18022G29KT 9SM CLR 33/11 A2996 RMK AO2 PK WND 20030/2215 SLP108 T03280111
KDDC 162152Z AUTO 19020G34KT 6SM HZ FEW090 33/11 A2997 RMK AO2 PK WND 18038/2106 SLP112 T03330111
KDDC 162122Z AUTO 19021G31KT 9SM FEW001 FEW095 34/11 A2997 RMK AO2 PK WND 18038/2106 T03440106